createdAt,value
2017-09-25T00:00:01.429Z,8.61
2017-09-25T00:00:06.047Z,8.62
2017-09-25T00:00:10.509Z,8.61
2017-09-25T00:00:14.599Z,8.61
2017-09-25T00:00:18.561Z,8.6
2017-09-25T00:00:22.394Z,8.59
2017-09-25T00:00:26.475Z,8.6
2017-09-25T00:00:30.685Z,8.61
2017-09-25T00:00:34.902Z,8.6
2017-09-25T00:00:38.867Z,8.6
2017-09-25T00:00:43.089Z,8.59
2017-09-25T00:00:47.303Z,8.59
2017-09-25T00:00:51.641Z,8.59
2017-09-25T00:00:55.479Z,8.59
2017-09-25T00:00:59.565Z,8.58
2017-09-25T00:01:04.026Z,8.59
2017-09-25T00:01:08.112Z,8.59
2017-09-25T00:01:12.570Z,8.58
2017-09-25T00:01:16.793Z,8.57
2017-09-25T00:01:21.002Z,8.57
2017-09-25T00:01:25.259Z,8.58
2017-09-25T00:01:29.216Z,8.57
2017-09-25T00:01:33.301Z,8.57
2017-09-25T00:01:37.262Z,8.57
2017-09-25T00:01:41.349Z,8.56
2017-09-25T00:01:45.439Z,8.57
2017-09-25T00:01:49.661Z,8.56
2017-09-25T00:01:53.866Z,8.56
2017-09-25T00:01:57.959Z,8.56
2017-09-25T00:02:01.923Z,8.56
2017-09-25T00:02:06.263Z,8.57
2017-09-25T00:02:10.227Z,8.55
2017-09-25T00:02:14.561Z,8.55
2017-09-25T00:02:18.523Z,8.55
2017-09-25T00:02:22.733Z,8.55
2017-09-25T00:02:26.950Z,8.54
2017-09-25T00:02:31.160Z,8.54
2017-09-25T00:02:35.374Z,8.54
2017-09-25T00:02:39.580Z,8.54
2017-09-25T00:02:43.792Z,8.53
2017-09-25T00:02:48.011Z,8.54
2017-09-25T00:02:51.971Z,8.54
2017-09-25T00:02:56.308Z,8.54
2017-09-25T00:03:00.270Z,8.53
2017-09-25T00:03:04.477Z,8.54
2017-09-25T00:03:08.809Z,8.53
2017-09-25T00:03:12.895Z,8.53
2017-09-25T00:03:17.004Z,8.52
2017-09-25T00:03:21.218Z,8.52
2017-09-25T00:03:25.550Z,8.52
2017-09-25T00:03:29.901Z,8.51
2017-09-25T00:03:34.235Z,8.52
2017-09-25T00:03:38.449Z,8.52
2017-09-25T00:03:42.784Z,8.51
2017-09-25T00:03:46.870Z,8.51
2017-09-25T00:03:50.836Z,8.51
2017-09-25T00:03:54.926Z,8.51
2017-09-25T00:03:59.269Z,8.51
2017-09-25T00:04:03.783Z,8.51
2017-09-25T00:04:07.744Z,8.5
2017-09-25T00:04:11.824Z,8.5
2017-09-25T00:04:15.917Z,8.5
2017-09-25T00:04:20.253Z,8.5
2017-09-25T00:04:24.344Z,8.5
2017-09-25T00:04:28.313Z,8.5
2017-09-25T00:04:32.396Z,8.49
2017-09-25T00:04:36.725Z,8.49
2017-09-25T00:04:41.060Z,8.48
2017-09-25T00:04:45.288Z,8.49
2017-09-25T00:04:49.619Z,8.48
2017-09-25T00:04:53.453Z,8.49
2017-09-25T00:04:57.794Z,8.48
2017-09-25T00:05:02.134Z,8.49
2017-09-25T00:05:06.475Z,8.49
2017-09-25T00:05:10.686Z,8.49
2017-09-25T00:05:14.774Z,8.48
2017-09-25T00:05:18.986Z,8.48
2017-09-25T00:05:23.202Z,8.48
2017-09-25T00:05:27.417Z,8.47
2017-09-25T00:05:31.643Z,8.48
2017-09-25T00:05:36.011Z,8.47
2017-09-25T00:05:40.102Z,8.47
2017-09-25T00:05:44.192Z,8.47
2017-09-25T00:05:48.281Z,8.47
2017-09-25T00:05:52.615Z,8.46
2017-09-25T00:05:57.079Z,8.47
2017-09-25T00:06:00.914Z,8.46
2017-09-25T00:06:05.372Z,8.46
2017-09-25T00:06:09.209Z,8.46
2017-09-25T00:06:13.542Z,8.45
2017-09-25T00:06:17.627Z,8.45
2017-09-25T00:06:21.997Z,8.46
2017-09-25T00:06:26.212Z,8.44
2017-09-25T00:06:30.543Z,8.45
2017-09-25T00:06:35.008Z,8.44
2017-09-25T00:06:39.342Z,8.44
2017-09-25T00:06:43.680Z,8.44
2017-09-25T00:06:47.887Z,8.44
2017-09-25T00:06:51.975Z,8.44
2017-09-25T00:06:56.315Z,8.44
2017-09-25T00:07:00.398Z,8.43
2017-09-25T00:07:04.584Z,8.44
2017-09-25T00:07:08.678Z,8.44
2017-09-25T00:07:13.014Z,8.43
2017-09-25T00:07:17.108Z,8.43
2017-09-25T00:07:21.195Z,8.43
2017-09-25T00:07:25.538Z,8.42
2017-09-25T00:07:29.620Z,8.42
2017-09-25T00:07:33.836Z,8.42
2017-09-25T00:07:37.682Z,8.42
2017-09-25T00:07:42.142Z,8.43
2017-09-25T00:07:46.354Z,8.42
2017-09-25T00:07:50.562Z,8.42
2017-09-25T00:07:54.524Z,8.42
2017-09-25T00:07:58.613Z,8.41
2017-09-25T00:08:02.943Z,8.42
2017-09-25T00:08:07.149Z,8.42
2017-09-25T00:08:11.237Z,8.41
2017-09-25T00:08:15.075Z,8.41
2017-09-25T00:08:19.535Z,8.41
2017-09-25T00:08:23.618Z,8.41
2017-09-25T00:08:27.829Z,8.42
2017-09-25T00:08:32.045Z,8.41
2017-09-25T00:08:35.874Z,8.41
2017-09-25T00:08:40.086Z,8.41
2017-09-25T00:08:44.042Z,8.41
2017-09-25T00:08:48.133Z,8.41
2017-09-25T00:08:52.351Z,8.4
2017-09-25T00:08:56.685Z,8.41
2017-09-25T00:09:00.900Z,8.41
2017-09-25T00:09:04.975Z,8.4
2017-09-25T00:09:09.561Z,8.4
2017-09-25T00:09:13.649Z,8.4
2017-09-25T00:09:18.110Z,8.4
2017-09-25T00:09:22.328Z,8.39
2017-09-25T00:09:26.409Z,8.4
2017-09-25T00:09:30.498Z,8.39
2017-09-25T00:09:34.710Z,8.4
2017-09-25T00:09:38.811Z,8.4
2017-09-25T00:09:43.271Z,8.4
2017-09-25T00:09:47.357Z,8.4
2017-09-25T00:09:51.693Z,8.4
2017-09-25T00:09:55.903Z,8.4
2017-09-25T00:09:59.992Z,8.4
2017-09-25T00:10:04.325Z,8.39
2017-09-25T00:10:08.284Z,8.39
2017-09-25T00:10:12.247Z,8.39
2017-09-25T00:10:16.583Z,8.4
2017-09-25T00:10:20.790Z,8.39
2017-09-25T00:10:24.880Z,8.4
2017-09-25T00:10:29.219Z,8.39
2017-09-25T00:10:33.184Z,8.39
2017-09-25T00:10:37.267Z,8.4
2017-09-25T00:10:41.731Z,8.39
2017-09-25T00:10:45.945Z,8.39
2017-09-25T00:10:50.285Z,8.39
2017-09-25T00:10:54.368Z,8.38
2017-09-25T00:10:58.576Z,8.39
2017-09-25T00:11:02.668Z,8.38
2017-09-25T00:11:06.751Z,8.39
2017-09-25T00:11:10.835Z,8.39
2017-09-25T00:11:14.793Z,8.38
2017-09-25T00:11:19.256Z,8.38
2017-09-25T00:11:23.472Z,8.38
2017-09-25T00:11:27.684Z,8.38
2017-09-25T00:11:31.768Z,8.39
2017-09-25T00:11:35.981Z,8.39
2017-09-25T00:11:40.444Z,8.38
2017-09-25T00:11:44.408Z,8.37
2017-09-25T00:11:48.623Z,8.38
2017-09-25T00:11:52.842Z,8.38
2017-09-25T00:11:56.681Z,8.38
2017-09-25T00:12:00.896Z,8.38
2017-09-25T00:12:05.234Z,8.38
2017-09-25T00:12:09.575Z,8.38
2017-09-25T00:12:13.534Z,8.37
2017-09-25T00:12:17.619Z,8.38
2017-09-25T00:12:21.586Z,8.37
2017-09-25T00:12:25.425Z,8.38
2017-09-25T00:12:29.515Z,8.37
2017-09-25T00:12:33.604Z,8.38
2017-09-25T00:12:37.936Z,8.38
2017-09-25T00:12:42.024Z,8.38
2017-09-25T00:12:45.856Z,8.38
2017-09-25T00:12:49.940Z,8.38
2017-09-25T00:12:54.155Z,8.38
2017-09-25T00:12:57.993Z,8.38
2017-09-25T00:13:02.203Z,8.38
2017-09-25T00:13:06.294Z,8.38
2017-09-25T00:13:10.628Z,8.38
2017-09-25T00:13:14.998Z,8.38
2017-09-25T00:13:19.087Z,8.38
2017-09-25T00:13:23.171Z,8.38
2017-09-25T00:13:27.133Z,8.38
2017-09-25T00:13:31.346Z,8.39
2017-09-25T00:13:35.435Z,8.37
2017-09-25T00:13:39.521Z,8.39
2017-09-25T00:13:43.985Z,8.38
2017-09-25T00:13:48.202Z,8.39
2017-09-25T00:13:52.421Z,8.38
2017-09-25T00:13:56.506Z,8.39
2017-09-25T00:14:00.842Z,8.38
2017-09-25T00:14:04.802Z,8.38
2017-09-25T00:14:08.893Z,8.38
2017-09-25T00:14:12.976Z,8.39
2017-09-25T00:14:17.059Z,8.39
2017-09-25T00:14:21.270Z,8.39
2017-09-25T00:14:25.479Z,8.39
2017-09-25T00:14:29.561Z,8.39
2017-09-25T00:14:33.652Z,8.38
2017-09-25T00:14:37.739Z,8.39
2017-09-25T00:14:41.694Z,8.39
2017-09-25T00:14:45.785Z,8.39
2017-09-25T00:14:49.747Z,8.39
2017-09-25T00:14:53.836Z,8.4
2017-09-25T00:14:58.045Z,8.4
2017-09-25T00:15:02.681Z,8.4
2017-09-25T00:15:06.641Z,8.4
2017-09-25T00:15:10.864Z,8.4
2017-09-25T00:15:14.949Z,8.4
2017-09-25T00:15:19.039Z,8.41
2017-09-25T00:15:23.130Z,8.41
2017-09-25T00:15:27.343Z,8.42
2017-09-25T00:15:31.679Z,8.42
2017-09-25T00:15:35.764Z,8.42
2017-09-25T00:15:39.979Z,8.42
2017-09-25T00:15:44.197Z,8.42
2017-09-25T00:15:48.408Z,8.42
2017-09-25T00:15:52.621Z,8.42
2017-09-25T00:15:56.706Z,8.43
2017-09-25T00:16:00.919Z,8.42
2017-09-25T00:16:05.626Z,8.42
2017-09-25T00:16:09.965Z,8.42
2017-09-25T00:16:14.177Z,8.43
2017-09-25T00:16:18.688Z,8.43
2017-09-25T00:16:23.025Z,8.43
2017-09-25T00:16:27.246Z,8.42
2017-09-25T00:16:31.335Z,8.43
2017-09-25T00:16:35.550Z,8.43
2017-09-25T00:16:39.752Z,8.43
2017-09-25T00:16:43.843Z,8.43
2017-09-25T00:16:48.063Z,8.44
2017-09-25T00:16:52.148Z,8.44
2017-09-25T00:16:56.235Z,8.44
2017-09-25T00:17:00.197Z,8.44
2017-09-25T00:17:04.337Z,8.43
2017-09-25T00:17:08.669Z,8.44
2017-09-25T00:17:12.884Z,8.44
2017-09-25T00:17:17.223Z,8.44
2017-09-25T00:17:21.320Z,8.44
2017-09-25T00:17:25.404Z,8.45
2017-09-25T00:17:29.489Z,8.44
2017-09-25T00:17:33.325Z,8.45
2017-09-25T00:17:37.288Z,8.44
2017-09-25T00:17:41.758Z,8.45
2017-09-25T00:17:45.594Z,8.46
2017-09-25T00:17:49.554Z,8.44
2017-09-25T00:17:53.649Z,8.45
2017-09-25T00:17:57.737Z,8.46
2017-09-25T00:18:01.942Z,8.45
2017-09-25T00:18:05.898Z,8.46
2017-09-25T00:18:10.238Z,8.46
2017-09-25T00:18:14.205Z,8.46
2017-09-25T00:18:18.418Z,8.46
2017-09-25T00:18:22.638Z,8.45
2017-09-25T00:18:26.598Z,8.46
2017-09-25T00:18:30.811Z,8.45
2017-09-25T00:18:34.902Z,8.45
2017-09-25T00:18:39.118Z,8.45
2017-09-25T00:18:43.335Z,8.46
2017-09-25T00:18:47.553Z,8.45
2017-09-25T00:18:51.636Z,8.46
2017-09-25T00:18:55.840Z,8.45
2017-09-25T00:18:59.930Z,8.45
2017-09-25T00:19:04.464Z,8.46
2017-09-25T00:19:08.675Z,8.46
2017-09-25T00:19:12.885Z,8.46
2017-09-25T00:19:16.977Z,8.46
2017-09-25T00:19:21.066Z,8.46
2017-09-25T00:19:25.157Z,8.45
2017-09-25T00:19:29.249Z,8.45
2017-09-25T00:19:33.205Z,8.45
2017-09-25T00:19:37.171Z,8.46
2017-09-25T00:19:41.385Z,8.45
2017-09-25T00:19:45.597Z,8.46
2017-09-25T00:19:49.549Z,8.46
2017-09-25T00:19:53.754Z,8.46
2017-09-25T00:19:57.717Z,8.45
2017-09-25T00:20:01.920Z,8.46
2017-09-25T00:20:06.013Z,8.45
2017-09-25T00:20:09.978Z,8.46
2017-09-25T00:20:14.442Z,8.46
2017-09-25T00:20:18.785Z,8.46
2017-09-25T00:20:22.872Z,8.46
2017-09-25T00:20:26.831Z,8.46
2017-09-25T00:20:30.790Z,8.46
2017-09-25T00:20:35.009Z,8.46
2017-09-25T00:20:39.354Z,8.46
2017-09-25T00:20:43.689Z,8.45
2017-09-25T00:20:47.896Z,8.45
2017-09-25T00:20:52.358Z,8.46
2017-09-25T00:20:56.699Z,8.46
2017-09-25T00:21:00.912Z,8.45
2017-09-25T00:21:05.124Z,8.44
2017-09-25T00:21:09.594Z,8.45
2017-09-25T00:21:13.549Z,8.46
2017-09-25T00:21:17.511Z,8.45
2017-09-25T00:21:21.470Z,8.46
2017-09-25T00:21:25.308Z,8.46
2017-09-25T00:21:29.392Z,8.46
2017-09-25T00:21:33.351Z,8.45
2017-09-25T00:21:37.445Z,8.46
2017-09-25T00:21:41.677Z,8.46
2017-09-25T00:21:45.893Z,8.46
2017-09-25T00:21:49.858Z,8.46
2017-09-25T00:21:53.946Z,8.46
2017-09-25T00:21:57.779Z,8.46
2017-09-25T00:22:01.864Z,8.46
2017-09-25T00:22:06.024Z,8.47
2017-09-25T00:22:10.120Z,8.46
2017-09-25T00:22:14.591Z,8.47
2017-09-25T00:22:18.555Z,8.46
2017-09-25T00:22:22.769Z,8.47
2017-09-25T00:22:26.854Z,8.46
2017-09-25T00:22:30.942Z,8.47
2017-09-25T00:22:35.530Z,8.47
2017-09-25T00:22:39.369Z,8.46
2017-09-25T00:22:43.330Z,8.47
2017-09-25T00:22:47.797Z,8.47
2017-09-25T00:22:51.752Z,8.47
2017-09-25T00:22:55.836Z,8.46
2017-09-25T00:22:59.923Z,8.46
2017-09-25T00:23:04.163Z,8.46
2017-09-25T00:23:08.372Z,8.46
2017-09-25T00:23:12.711Z,8.46
2017-09-25T00:23:16.671Z,8.47
2017-09-25T00:23:20.759Z,8.47
2017-09-25T00:23:24.719Z,8.46
2017-09-25T00:23:28.929Z,8.46
2017-09-25T00:23:33.138Z,8.46
2017-09-25T00:23:37.352Z,8.47
2017-09-25T00:23:41.690Z,8.47
2017-09-25T00:23:45.774Z,8.46
2017-09-25T00:23:50.233Z,8.47
2017-09-25T00:23:54.067Z,8.47
2017-09-25T00:23:58.028Z,8.46
2017-09-25T00:24:02.237Z,8.46
2017-09-25T00:24:06.201Z,8.47
2017-09-25T00:24:10.418Z,8.46
2017-09-25T00:24:14.630Z,8.47
2017-09-25T00:24:18.599Z,8.47
2017-09-25T00:24:22.815Z,8.47
2017-09-25T00:24:26.776Z,8.47
2017-09-25T00:24:30.738Z,8.46
2017-09-25T00:24:34.953Z,8.47
2017-09-25T00:24:39.164Z,8.46
2017-09-25T00:24:43.506Z,8.47
2017-09-25T00:24:47.839Z,8.47
2017-09-25T00:24:52.175Z,8.46
2017-09-25T00:24:56.513Z,8.47
2017-09-25T00:25:00.600Z,8.46
2017-09-25T00:25:05.039Z,8.47
2017-09-25T00:25:09.259Z,8.46
2017-09-25T00:25:13.352Z,8.47
2017-09-25T00:25:17.441Z,8.45
2017-09-25T00:25:21.527Z,8.46
2017-09-25T00:25:25.738Z,8.46
2017-09-25T00:25:29.827Z,8.46
2017-09-25T00:25:34.040Z,8.46
2017-09-25T00:25:38.374Z,8.45
2017-09-25T00:25:42.583Z,8.46
2017-09-25T00:25:46.921Z,8.46
2017-09-25T00:25:51.383Z,8.46
2017-09-25T00:25:55.595Z,8.46
2017-09-25T00:25:59.816Z,8.46
2017-09-25T00:26:04.026Z,8.46
2017-09-25T00:26:08.142Z,8.46
2017-09-25T00:26:12.471Z,8.46
2017-09-25T00:26:16.689Z,8.46
2017-09-25T00:26:20.773Z,8.45
2017-09-25T00:26:24.997Z,8.46
2017-09-25T00:26:29.074Z,8.45
2017-09-25T00:26:33.160Z,8.45
2017-09-25T00:26:37.493Z,8.46
2017-09-25T00:26:41.959Z,8.45
2017-09-25T00:26:46.043Z,8.45
2017-09-25T00:26:50.003Z,8.45
2017-09-25T00:26:54.473Z,8.45
2017-09-25T00:26:58.559Z,8.45
2017-09-25T00:27:02.771Z,8.45
2017-09-25T00:27:07.111Z,8.44
2017-09-25T00:27:11.450Z,8.45
2017-09-25T00:27:15.409Z,8.44
2017-09-25T00:27:19.622Z,8.44
2017-09-25T00:27:23.709Z,8.44
2017-09-25T00:27:27.924Z,8.44
2017-09-25T00:27:32.139Z,8.44
2017-09-25T00:27:36.223Z,8.44
2017-09-25T00:27:40.178Z,8.44
2017-09-25T00:27:44.266Z,8.43
2017-09-25T00:27:48.354Z,8.44
2017-09-25T00:27:52.814Z,8.44
2017-09-25T00:27:57.146Z,8.44
2017-09-25T00:28:01.235Z,8.42
2017-09-25T00:28:05.826Z,8.42
2017-09-25T00:28:10.038Z,8.43
2017-09-25T00:28:14.000Z,8.43
2017-09-25T00:28:18.087Z,8.41
2017-09-25T00:28:21.928Z,8.43
2017-09-25T00:28:26.017Z,8.42
2017-09-25T00:28:30.229Z,8.42
2017-09-25T00:28:34.438Z,8.43
2017-09-25T00:28:38.816Z,8.42
2017-09-25T00:28:43.152Z,8.42
2017-09-25T00:28:47.116Z,8.42
2017-09-25T00:28:51.327Z,8.41
2017-09-25T00:28:55.539Z,8.41
2017-09-25T00:28:59.620Z,8.41
2017-09-25T00:29:04.383Z,8.41
2017-09-25T00:29:08.596Z,8.41
2017-09-25T00:29:12.810Z,8.4
2017-09-25T00:29:17.018Z,8.41
2017-09-25T00:29:21.352Z,8.4
2017-09-25T00:29:25.436Z,8.41
2017-09-25T00:29:29.693Z,8.4
2017-09-25T00:29:34.161Z,8.4
2017-09-25T00:29:38.249Z,8.4
2017-09-25T00:29:42.461Z,8.4
2017-09-25T00:29:46.551Z,8.39
2017-09-25T00:29:50.511Z,8.39
2017-09-25T00:29:54.851Z,8.39
2017-09-25T00:29:59.062Z,8.4
2017-09-25T00:30:18.188Z,8.39
2017-09-25T00:30:22.149Z,8.39
2017-09-25T00:30:26.362Z,8.38
2017-09-25T00:30:30.694Z,8.39
2017-09-25T00:30:34.908Z,8.39
2017-09-25T00:30:38.991Z,8.39
2017-09-25T00:30:43.206Z,8.39
2017-09-25T00:30:47.555Z,8.39
2017-09-25T00:30:51.648Z,8.39
2017-09-25T00:30:55.857Z,8.39
2017-09-25T00:30:59.696Z,8.39
2017-09-25T00:31:03.781Z,8.38
2017-09-25T00:31:08.117Z,8.39
2017-09-25T00:31:12.579Z,8.39
2017-09-25T00:31:16.910Z,8.39
2017-09-25T00:31:20.989Z,8.39
2017-09-25T00:31:24.951Z,8.39
2017-09-25T00:31:29.042Z,8.39
2017-09-25T00:31:33.382Z,8.39
2017-09-25T00:31:37.596Z,8.38
2017-09-25T00:31:41.809Z,8.39
2017-09-25T00:31:46.019Z,8.38
2017-09-25T00:31:49.858Z,8.39
2017-09-25T00:31:53.938Z,8.4
2017-09-25T00:31:58.150Z,8.38
2017-09-25T00:32:02.358Z,8.4
2017-09-25T00:32:06.445Z,8.39
2017-09-25T00:32:10.911Z,8.39
2017-09-25T00:32:15.032Z,8.4
2017-09-25T00:32:19.372Z,8.39
2017-09-25T00:32:23.458Z,8.4
2017-09-25T00:32:27.670Z,8.4
2017-09-25T00:32:31.756Z,8.41
2017-09-25T00:32:36.090Z,8.4
2017-09-25T00:32:40.176Z,8.4
2017-09-25T00:32:44.389Z,8.39
2017-09-25T00:32:48.597Z,8.41
2017-09-25T00:32:52.563Z,8.4
2017-09-25T00:32:56.652Z,8.4
2017-09-25T00:33:00.620Z,8.41
2017-09-25T00:33:04.961Z,8.41
2017-09-25T00:33:09.050Z,8.4
2017-09-25T00:33:13.387Z,8.41
2017-09-25T00:33:17.227Z,8.41
2017-09-25T00:33:21.576Z,8.41
2017-09-25T00:33:25.794Z,8.41
2017-09-25T00:33:30.009Z,8.41
2017-09-25T00:33:33.972Z,8.42
2017-09-25T00:33:38.314Z,8.42
2017-09-25T00:33:42.526Z,8.42
2017-09-25T00:33:46.613Z,8.42
2017-09-25T00:33:50.825Z,8.42
2017-09-25T00:33:55.163Z,8.42
2017-09-25T00:33:59.386Z,8.43
2017-09-25T00:34:03.596Z,8.42
2017-09-25T00:34:07.682Z,8.42
2017-09-25T00:34:11.890Z,8.41
2017-09-25T00:34:16.224Z,8.42
2017-09-25T00:34:20.437Z,8.43
2017-09-25T00:34:24.679Z,8.43
2017-09-25T00:34:29.268Z,8.43
2017-09-25T00:34:33.352Z,8.43
2017-09-25T00:34:37.441Z,8.44
2017-09-25T00:34:41.657Z,8.44
2017-09-25T00:34:45.740Z,8.44
2017-09-25T00:34:49.696Z,8.44
2017-09-25T00:34:53.654Z,8.44
2017-09-25T00:34:57.739Z,8.44
2017-09-25T00:35:01.825Z,8.44
2017-09-25T00:35:06.161Z,8.45
2017-09-25T00:35:10.496Z,8.45
2017-09-25T00:35:14.707Z,8.45
2017-09-25T00:35:18.923Z,8.45
2017-09-25T00:35:23.381Z,8.45
2017-09-25T00:35:27.380Z,8.45
2017-09-25T00:35:31.591Z,8.46
2017-09-25T00:35:35.938Z,8.45
2017-09-25T00:35:40.270Z,8.45
2017-09-25T00:35:44.229Z,8.45
2017-09-25T00:35:48.437Z,8.46
2017-09-25T00:35:52.768Z,8.46
2017-09-25T00:35:56.858Z,8.46
2017-09-25T00:36:00.950Z,8.47
2017-09-25T00:36:05.290Z,8.47
2017-09-25T00:36:09.498Z,8.46
2017-09-25T00:36:45.790Z,8.48
2017-09-25T00:36:49.881Z,8.48
2017-09-25T00:36:53.716Z,8.49
2017-09-25T00:36:57.678Z,8.49
2017-09-25T00:37:01.888Z,8.49
2017-09-25T00:37:06.100Z,8.48
2017-09-25T00:37:10.311Z,8.5
2017-09-25T00:37:14.394Z,8.49
2017-09-25T00:37:18.352Z,8.49
2017-09-25T00:37:22.435Z,8.5
2017-09-25T00:37:26.526Z,8.5
2017-09-25T00:37:30.608Z,8.5
2017-09-25T00:37:34.814Z,8.5
2017-09-25T00:37:38.899Z,8.5
2017-09-25T00:37:42.857Z,8.51
2017-09-25T00:37:47.067Z,8.51
2017-09-25T00:37:51.275Z,8.51
2017-09-25T00:37:55.359Z,8.5
2017-09-25T00:37:59.580Z,8.51
2017-09-25T00:38:03.670Z,8.51
2017-09-25T00:38:07.878Z,8.51
2017-09-25T00:38:11.838Z,8.51
2017-09-25T00:38:16.050Z,8.51
2017-09-25T00:38:20.509Z,8.51
2017-09-25T00:38:24.849Z,8.52
2017-09-25T00:38:28.936Z,8.52
2017-09-25T00:38:33.144Z,8.52
2017-09-25T00:38:37.104Z,8.51
2017-09-25T00:38:40.945Z,8.52
2017-09-25T00:38:45.403Z,8.53
2017-09-25T00:38:49.490Z,8.53
2017-09-25T00:38:53.701Z,8.52
2017-09-25T00:38:58.157Z,8.53
2017-09-25T00:39:02.691Z,8.53
2017-09-25T00:39:07.026Z,8.52
2017-09-25T00:39:11.240Z,8.53
2017-09-25T00:39:15.448Z,8.54
2017-09-25T00:39:19.533Z,8.53
2017-09-25T00:39:23.744Z,8.54
2017-09-25T00:39:27.574Z,8.53
2017-09-25T00:39:31.405Z,8.53
2017-09-25T00:39:35.747Z,8.54
2017-09-25T00:39:39.702Z,8.54
2017-09-25T00:39:43.787Z,8.54
2017-09-25T00:39:47.869Z,8.54
2017-09-25T00:39:51.955Z,8.53
2017-09-25T00:39:56.167Z,8.54
2017-09-25T00:40:00.252Z,8.54
2017-09-25T00:40:04.343Z,8.54
2017-09-25T00:40:08.436Z,8.54
2017-09-25T00:40:12.513Z,8.54
2017-09-25T00:40:16.596Z,8.54
2017-09-25T00:40:20.551Z,8.55
2017-09-25T00:40:24.515Z,8.54
2017-09-25T00:40:28.350Z,8.54
2017-09-25T00:40:32.433Z,8.55
2017-09-25T00:40:36.395Z,8.55
2017-09-25T00:40:40.353Z,8.54
2017-09-25T00:40:44.815Z,8.54
2017-09-25T00:40:49.154Z,8.55
2017-09-25T00:40:53.740Z,8.55
2017-09-25T00:40:57.946Z,8.54
2017-09-25T00:41:02.056Z,8.55
2017-09-25T00:41:06.270Z,8.55
2017-09-25T00:41:10.348Z,8.55
2017-09-25T00:41:14.566Z,8.56
2017-09-25T00:41:18.775Z,8.56
2017-09-25T00:41:22.978Z,8.55
2017-09-25T00:41:27.188Z,8.55
2017-09-25T00:41:31.407Z,8.55
2017-09-25T00:41:35.492Z,8.56
2017-09-25T00:41:39.575Z,8.56
2017-09-25T00:41:43.530Z,8.56
2017-09-25T00:41:47.773Z,8.56
2017-09-25T00:41:52.117Z,8.56
2017-09-25T00:41:56.199Z,8.56
2017-09-25T00:42:00.283Z,8.56
2017-09-25T00:42:04.499Z,8.56
2017-09-25T00:42:08.831Z,8.56
2017-09-25T00:42:13.176Z,8.56
2017-09-25T00:42:17.516Z,8.57
2017-09-25T00:42:21.729Z,8.56
2017-09-25T00:42:25.946Z,8.56
2017-09-25T00:42:30.410Z,8.56
2017-09-25T00:42:34.374Z,8.56
2017-09-25T00:42:38.460Z,8.56
2017-09-25T00:42:42.419Z,8.56
2017-09-25T00:42:46.627Z,8.56
2017-09-25T00:42:50.965Z,8.57
2017-09-25T00:42:55.050Z,8.57
2017-09-25T00:42:59.386Z,8.56
2017-09-25T00:43:03.698Z,8.56
2017-09-25T00:43:07.661Z,8.56
2017-09-25T00:43:11.879Z,8.56
2017-09-25T00:43:16.226Z,8.57
2017-09-25T00:43:20.557Z,8.56
2017-09-25T00:43:25.028Z,8.58
2017-09-25T00:43:29.484Z,8.56
2017-09-25T00:43:33.449Z,8.56
2017-09-25T00:43:37.529Z,8.56
2017-09-25T00:43:41.624Z,8.56
2017-09-25T00:43:45.707Z,8.56
2017-09-25T00:43:49.671Z,8.56
2017-09-25T00:43:54.128Z,8.56
2017-09-25T00:43:58.465Z,8.56
2017-09-25T00:44:02.628Z,8.56
2017-09-25T00:44:06.841Z,8.56
2017-09-25T00:44:10.807Z,8.57
2017-09-25T00:44:15.179Z,8.57
2017-09-25T00:44:18.984Z,8.56
2017-09-25T00:44:23.317Z,8.55
2017-09-25T00:44:27.281Z,8.57
2017-09-25T00:44:31.242Z,8.56
2017-09-25T00:44:35.456Z,8.56
2017-09-25T00:44:39.795Z,8.55
2017-09-25T00:44:43.755Z,8.56
2017-09-25T00:44:47.731Z,8.56
2017-09-25T00:44:52.072Z,8.55
2017-09-25T00:44:56.417Z,8.56
2017-09-25T00:45:00.759Z,8.57
2017-09-25T00:45:05.354Z,8.56
2017-09-25T00:45:09.563Z,8.56
2017-09-25T00:45:13.904Z,8.55
2017-09-25T00:45:18.122Z,8.56
2017-09-25T00:45:22.335Z,8.56
2017-09-25T00:45:26.543Z,8.56
2017-09-25T00:45:30.629Z,8.55
2017-09-25T00:45:34.845Z,8.55
2017-09-25T00:45:39.057Z,8.55
2017-09-25T00:45:43.390Z,8.55
2017-09-25T00:45:47.854Z,8.56
2017-09-25T00:45:52.068Z,8.55
2017-09-25T00:45:56.031Z,8.55
2017-09-25T00:46:00.621Z,8.55
2017-09-25T00:46:04.907Z,8.55
2017-09-25T00:46:08.742Z,8.54
2017-09-25T00:46:13.208Z,8.54
2017-09-25T00:46:17.172Z,8.54
2017-09-25T00:46:21.255Z,8.54
2017-09-25T00:46:25.605Z,8.54
2017-09-25T00:46:29.691Z,8.54
2017-09-25T00:46:33.776Z,8.54
2017-09-25T00:46:37.863Z,8.53
2017-09-25T00:46:41.840Z,8.53
2017-09-25T00:46:45.814Z,8.53
2017-09-25T00:46:50.024Z,8.54
2017-09-25T00:46:54.239Z,8.53
2017-09-25T00:46:58.200Z,8.54
2017-09-25T00:47:02.563Z,8.53
2017-09-25T00:47:06.644Z,8.53
2017-09-25T00:47:10.484Z,8.53
2017-09-25T00:47:14.448Z,8.53
2017-09-25T00:47:18.570Z,8.52
2017-09-25T00:47:22.532Z,8.52
2017-09-25T00:47:27.116Z,8.53
2017-09-25T00:47:30.952Z,8.52
2017-09-25T00:47:35.159Z,8.53
2017-09-25T00:47:39.369Z,8.52
2017-09-25T00:47:43.206Z,8.52
2017-09-25T00:47:47.432Z,8.51
2017-09-25T00:47:51.523Z,8.52
2017-09-25T00:47:55.605Z,8.52
2017-09-25T00:47:59.570Z,8.53
2017-09-25T00:48:03.782Z,8.52
2017-09-25T00:48:08.126Z,8.52
2017-09-25T00:48:12.219Z,8.52
2017-09-25T00:48:16.306Z,8.52
2017-09-25T00:48:20.266Z,8.51
2017-09-25T00:48:24.354Z,8.52
2017-09-25T00:48:28.316Z,8.51
2017-09-25T00:48:32.404Z,8.51
2017-09-25T00:48:36.495Z,8.52
2017-09-25T00:48:40.579Z,8.52
2017-09-25T00:48:44.656Z,8.5
2017-09-25T00:48:48.742Z,8.51
2017-09-25T00:48:52.826Z,8.51
2017-09-25T00:48:56.786Z,8.51
2017-09-25T00:49:00.873Z,8.51
2017-09-25T00:49:05.061Z,8.51
2017-09-25T00:49:09.397Z,8.51
2017-09-25T00:49:13.603Z,8.51
2017-09-25T00:49:17.940Z,8.51
2017-09-25T00:49:21.904Z,8.51
2017-09-25T00:49:26.119Z,8.5
2017-09-25T00:49:30.207Z,8.49
2017-09-25T00:49:34.414Z,8.51
2017-09-25T00:49:38.881Z,8.5
2017-09-25T00:49:42.840Z,8.5
2017-09-25T00:49:47.051Z,8.49
2017-09-25T00:49:51.143Z,8.5
2017-09-25T00:49:55.602Z,8.51
2017-09-25T00:49:59.436Z,8.5
2017-09-25T00:50:03.906Z,8.49
2017-09-25T00:50:07.996Z,8.5
2017-09-25T00:50:12.211Z,8.49
2017-09-25T00:50:16.425Z,8.5
2017-09-25T00:50:20.630Z,8.5
2017-09-25T00:50:24.720Z,8.49
2017-09-25T00:50:28.928Z,8.49
2017-09-25T00:50:33.013Z,8.5
2017-09-25T00:50:37.355Z,8.5
2017-09-25T00:50:41.312Z,8.5
2017-09-25T00:50:45.145Z,8.51
2017-09-25T00:50:49.479Z,8.5
2017-09-25T00:50:53.692Z,8.5
2017-09-25T00:50:57.653Z,8.5
2017-09-25T00:51:01.490Z,8.5
2017-09-25T00:51:05.952Z,8.5
2017-09-25T00:51:10.170Z,8.51
2017-09-25T00:51:14.501Z,8.5
2017-09-25T00:51:18.717Z,8.5
2017-09-25T00:51:22.927Z,8.5
2017-09-25T00:51:27.265Z,8.5
2017-09-25T00:51:31.351Z,8.49
2017-09-25T00:51:35.560Z,8.5
2017-09-25T00:51:39.776Z,8.5
2017-09-25T00:51:44.107Z,8.5
2017-09-25T00:51:48.073Z,8.5
2017-09-25T00:51:51.904Z,8.5
2017-09-25T00:51:56.004Z,8.49
2017-09-25T00:51:59.970Z,8.5
2017-09-25T00:52:04.440Z,8.5
2017-09-25T00:52:08.400Z,8.5
2017-09-25T00:52:12.610Z,8.5
2017-09-25T00:52:16.571Z,8.5
2017-09-25T00:52:20.908Z,8.5
2017-09-25T00:52:25.124Z,8.5
2017-09-25T00:52:29.330Z,8.5
2017-09-25T00:52:33.415Z,8.49
2017-09-25T00:52:37.375Z,8.49
2017-09-25T00:52:41.709Z,8.5
2017-09-25T00:52:45.668Z,8.5
2017-09-25T00:52:49.751Z,8.5
2017-09-25T00:52:53.706Z,8.5
2017-09-25T00:52:58.042Z,8.5
2017-09-25T00:53:02.515Z,8.5
2017-09-25T00:53:06.853Z,8.5
2017-09-25T00:53:11.064Z,8.5
2017-09-25T00:53:15.407Z,8.5
2017-09-25T00:53:19.619Z,8.5
2017-09-25T00:53:23.831Z,8.51
2017-09-25T00:53:28.166Z,8.5
2017-09-25T00:53:32.499Z,8.5
2017-09-25T00:53:36.708Z,8.51
2017-09-25T00:53:40.916Z,8.51
2017-09-25T00:53:45.125Z,8.5
2017-09-25T00:53:49.092Z,8.51
2017-09-25T00:53:53.178Z,8.51
2017-09-25T00:53:57.263Z,8.51
2017-09-25T00:54:01.217Z,8.51
2017-09-25T00:54:05.308Z,8.5
2017-09-25T00:54:09.396Z,8.5
2017-09-25T00:54:13.609Z,8.52
2017-09-25T00:54:17.819Z,8.51
2017-09-25T00:54:21.780Z,8.51
2017-09-25T00:54:25.992Z,8.52
2017-09-25T00:54:29.827Z,8.51
2017-09-25T00:54:34.165Z,8.52
2017-09-25T00:54:38.381Z,8.52
2017-09-25T00:54:42.597Z,8.53
2017-09-25T00:54:46.435Z,8.53
2017-09-25T00:54:50.647Z,8.53
2017-09-25T00:54:54.983Z,8.52
2017-09-25T00:54:59.067Z,8.53
2017-09-25T00:55:03.409Z,8.52
2017-09-25T00:55:07.491Z,8.52
2017-09-25T00:55:11.457Z,8.53
2017-09-25T00:55:15.665Z,8.53
2017-09-25T00:55:19.620Z,8.53
2017-09-25T00:55:23.706Z,8.53
2017-09-25T00:55:27.671Z,8.54
2017-09-25T00:55:31.503Z,8.54
2017-09-25T00:55:35.604Z,8.54
2017-09-25T00:55:39.938Z,8.54
2017-09-25T00:55:43.775Z,8.54
2017-09-25T00:55:47.728Z,8.55
2017-09-25T00:55:51.935Z,8.54
2017-09-25T00:55:56.153Z,8.54
2017-09-25T00:56:00.116Z,8.54
2017-09-25T00:56:04.674Z,8.55
2017-09-25T00:56:08.891Z,8.55
2017-09-25T00:56:13.222Z,8.54
2017-09-25T00:56:17.428Z,8.55
2017-09-25T00:56:21.764Z,8.55
2017-09-25T00:56:26.142Z,8.54